Flugplatz Niederrhein

Bericht für EDLV

vom 28.10. um 08:50 UTC

Wind 10 kt aus 200°

Sichtweite 10 km oder mehr

gute Sicht, keine Wolken < 5000 ft, keine CB, keine Wettererscheinungen (CAVOK)

Temperatur 12.0°C

Taupunkt 9.0°C

Luftfeuchtigkeit 82%

Luftdruck 1007 hPa

EDLV 280850Z 20010KT 170V230 CAVOK 12/09 Q1007

Prognose für EDLV

vom 28.10. um 05:00 UTC

Zwischen 06:00 UTC und 08:00 UTC

Wind 7 kt aus 210°

Sichtweite 10 km oder mehr

aufgelockert bewölkt in 3000 ft


Zwischen 06:00 UTC und 08:00 UTC zeitweise mit einer Wahrscheinlichkeit von 40%

Wind 12 kt aus 220°

Regenschauer

aufgebrochene Bewölkung in 1400 ft


Zwischen 08:00 und 11:00 UTC übergehend zu

Wind 15 kt aus 220° in Böen 25 kt

Sichtweite 10 km oder mehr

aufgelockert bewölkt in 3000 ft


Zwischen 11:00 UTC und 15:00 UTC zeitweise

Wind 20 kt aus 220° in Böen 30 kt


Zwischen 15:00 und 18:00 UTC übergehend zu

Wind 12 kt aus 210°

Sichtweite 10 km oder mehr

aufgelockert bewölkt in 3000 ft


Zwischen 18:00 UTC und 04:00 UTC zeitweise

Wind 15 kt aus 240° in Böen 30 kt

Regenschauer

aufgebrochene Bewölkung in 1400 ft

TAF EDLV 280500Z 2806/2906 21007KT 9999 SCT030 PROB40 TEMPO 2806/2808 22012KT SHRA BKN014TCU BECMG 2808/2811 22015G25KT TEMPO 2811/2815 22020G30KT BECMG 2815/2818 21012KT TEMPO 2818/2904 24015G30KT SHRA BKN014CB
Impressum